Time;durP1;ratioP1;P1;durP2;ratioP2;P2;SDS_P1;SDS_P2;PMS_P1;PMS_P2;Temp;Humidity;BMP_temperature;BMP_pressure;BME280_temperature;BME280_humidity;BME280_pressure;Samples;Min_cycle;Max_cycle;Signal;HPM_P1;HPM_P2
2021/08/31 00:00:05;;;;;;;5.95;4.28;;;;;22.00;102253.00;;;;5007403;28;20197;-78
2021/08/31 00:02:33;;;;;;;5.53;4.75;;;;;22.00;102247.00;;;;5008511;28;20231;-77
2021/08/31 00:05:01;;;;;;;6.85;4.60;;;;;22.00;102247.00;;;;5007703;28;20659;-77
2021/08/31 00:07:28;;;;;;;5.80;4.47;;;;;22.00;102250.00;;;;5008116;28;20205;-77
2021/08/31 00:09:56;;;;;;;7.82;4.82;;;;;22.00;102246.00;;;;5007585;28;20679;-77
2021/08/31 00:12:23;;;;;;;5.60;4.47;;;;;22.00;102250.00;;;;5008553;28;20189;-77
2021/08/31 00:14:51;;;;;;;6.38;4.50;;;;;22.10;102255.00;;;;5007065;28;20200;-77
2021/08/31 00:17:18;;;;;;;7.88;5.13;;;;;22.10;102255.00;;;;5007737;28;20232;-77
2021/08/31 00:19:45;;;;;;;8.10;5.10;;;;;22.10;102252.00;;;;5007219;28;20189;-78
2021/08/31 00:22:14;;;;;;;7.25;4.72;;;;;22.10;102244.00;;;;5008318;28;20228;-77
2021/08/31 00:24:41;;;;;;;5.50;4.32;;;;;22.10;102250.00;;;;5006541;28;20209;-79
2021/08/31 00:27:09;;;;;;;9.93;5.47;;;;;22.10;102255.00;;;;5008368;28;20197;-79
2021/08/31 00:29:37;;;;;;;6.53;5.40;;;;;22.10;102251.00;;;;5006786;28;20197;-79
2021/08/31 00:32:05;;;;;;;5.43;4.55;;;;;22.10;102254.00;;;;5009591;28;20566;-79
2021/08/31 00:34:32;;;;;;;8.50;5.38;;;;;22.10;102255.00;;;;5011157;28;20517;-79
2021/08/31 00:36:59;;;;;;;9.10;4.85;;;;;22.10;102265.00;;;;5011875;28;20621;-79
2021/08/31 00:39:28;;;;;;;8.27;5.68;;;;;22.10;102262.00;;;;5010754;28;20205;-79
2021/08/31 00:41:55;;;;;;;9.48;5.38;;;;;22.10;102262.00;;;;5010283;28;20201;-79
2021/08/31 00:44:24;;;;;;;8.65;4.90;;;;;22.10;102270.00;;;;5011040;28;20197;-79
2021/08/31 00:46:52;;;;;;;5.97;5.03;;;;;22.10;102275.00;;;;5010474;28;20562;-79
2021/08/31 00:49:20;;;;;;;8.18;4.85;;;;;22.10;102277.00;;;;5011547;28;20201;-79
2021/08/31 00:51:48;;;;;;;10.77;5.45;;;;;22.10;102269.00;;;;5009401;28;20200;-79
2021/08/31 00:54:16;;;;;;;11.00;5.57;;;;;22.10;102277.00;;;;5011879;28;20219;-78
2021/08/31 00:56:45;;;;;;;8.13;4.78;;;;;22.10;102274.00;;;;5010340;28;20216;-79
2021/08/31 00:59:13;;;;;;;6.18;4.93;;;;;22.10;102280.00;;;;5010362;28;20193;-78
2021/08/31 01:01:40;;;;;;;5.07;4.40;;;;;22.10;102284.00;;;;5009433;28;20292;-79
2021/08/31 01:04:08;;;;;;;7.40;4.75;;;;;22.10;102278.00;;;;5010436;28;20687;-79
2021/08/31 01:06:35;;;;;;;7.75;4.85;;;;;22.10;102282.00;;;;5010644;28;20204;-79
2021/08/31 01:09:02;;;;;;;7.70;4.68;;;;;22.20;102281.00;;;;5010827;28;20738;-77
2021/08/31 01:11:30;;;;;;;10.07;5.07;;;;;22.10;102279.00;;;;5009794;28;20655;-78
2021/08/31 01:13:59;;;;;;;5.95;4.97;;;;;22.10;102273.00;;;;5010426;28;20212;-77
2021/08/31 01:16:26;;;;;;;5.55;4.55;;;;;22.20;102274.00;;;;5010775;28;20584;-77
2021/08/31 01:18:54;;;;;;;6.47;4.75;;;;;22.20;102286.00;;;;5009577;28;20243;-78
2021/08/31 01:21:21;;;;;;;6.15;4.35;;;;;22.20;102279.00;;;;5010526;28;20189;-79
2021/08/31 01:23:49;;;;;;;6.47;4.22;;;;;22.20;102284.00;;;;5010940;28;20328;-79
2021/08/31 01:26:18;;;;;;;7.13;4.90;;;;;22.20;102287.00;;;;5010103;28;20311;-78
2021/08/31 01:28:45;;;;;;;7.25;4.13;;;;;22.30;102286.00;;;;5010235;28;20219;-79
2021/08/31 01:31:13;;;;;;;7.93;4.75;;;;;22.30;102283.00;;;;5010150;28;20667;-78
2021/08/31 01:33:40;;;;;;;5.45;4.32;;;;;22.30;102290.00;;;;5009695;28;20200;-78
2021/08/31 01:36:18;;;;;;;6.32;4.55;;;;;22.30;102290.00;;;;5009764;28;20193;-78
2021/08/31 01:38:46;;;;;;;10.13;5.63;;;;;22.30;102291.00;;;;5010004;28;20192;-79
2021/08/31 01:41:13;;;;;;;9.77;4.47;;;;;22.30;102290.00;;;;5009851;28;20205;-78
2021/08/31 01:43:42;;;;;;;6.03;3.97;;;;;22.30;102301.00;;;;5008854;28;20229;-78
2021/08/31 01:46:10;;;;;;;6.68;4.75;;;;;22.30;102298.00;;;;5009783;28;20694;-78
2021/08/31 01:48:37;;;;;;;6.50;4.00;;;;;22.30;102305.00;;;;5009625;28;20679;-79
2021/08/31 01:51:05;;;;;;;7.90;4.20;;;;;22.40;102305.00;;;;5008981;28;20205;-78
2021/08/31 01:53:33;;;;;;;6.32;3.88;;;;;22.40;102306.00;;;;5010608;28;20763;-78
2021/08/31 01:56:00;;;;;;;6.90;4.65;;;;;22.40;102306.00;;;;5009816;28;20220;-79
2021/08/31 01:58:27;;;;;;;5.43;3.70;;;;;22.40;102305.00;;;;5009995;28;20204;-79
2021/08/31 02:00:56;;;;;;;7.78;4.25;;;;;22.40;102310.00;;;;5008880;28;20209;-78
2021/08/31 02:03:23;;;;;;;7.38;4.50;;;;;22.40;102307.00;;;;5009436;28;20224;-78
2021/08/31 02:05:50;;;;;;;8.45;4.97;;;;;22.40;102312.00;;;;5009657;28;20205;-78
2021/08/31 02:08:18;;;;;;;5.53;4.13;;;;;22.40;102307.00;;;;5010686;28;20569;-77
2021/08/31 02:10:45;;;;;;;6.25;4.00;;;;;22.40;102309.00;;;;5009247;28;20204;-77
2021/08/31 02:13:12;;;;;;;4.43;3.10;;;;;22.40;102308.00;;;;5010219;28;20212;-77
2021/08/31 02:15:39;;;;;;;6.10;4.32;;;;;22.50;102311.00;;;;5009045;28;20197;-78
2021/08/31 02:18:08;;;;;;;8.93;4.28;;;;;22.40;102308.00;;;;5009258;28;20225;-77
2021/08/31 02:20:36;;;;;;;6.57;3.95;;;;;22.50;102307.00;;;;5009811;28;20197;-78
2021/08/31 02:23:03;;;;;;;7.10;4.30;;;;;22.50;102304.00;;;;5009284;28;20217;-79
2021/08/31 02:25:31;;;;;;;6.53;3.90;;;;;22.50;102307.00;;;;5009166;28;20629;-78
2021/08/31 02:27:58;;;;;;;6.05;4.22;;;;;22.50;102299.00;;;;5009260;28;20674;-78
2021/08/31 02:30:26;;;;;;;7.60;3.75;;;;;22.50;102298.00;;;;5008666;28;20209;-78
2021/08/31 02:32:56;;;;;;;5.70;4.03;;;;;22.50;102303.00;;;;5008857;28;20201;-78
2021/08/31 02:35:25;;;;;;;5.82;3.83;;;;;22.50;102303.00;;;;5009181;28;20205;-78
2021/08/31 02:37:52;;;;;;;5.80;4.38;;;;;22.60;102300.00;;;;5009292;28;20701;-78
2021/08/31 02:40:19;;;;;;;5.28;3.40;;;;;22.60;102295.00;;;;5009016;28;20204;-79
2021/08/31 02:42:46;;;;;;;4.70;3.72;;;;;22.60;102302.00;;;;5008673;28;20192;-78
2021/08/31 02:45:14;;;;;;;6.78;4.25;;;;;22.60;102297.00;;;;5008857;28;20197;-78
2021/08/31 02:47:41;;;;;;;6.28;3.97;;;;;22.60;102301.00;;;;5008103;28;20220;-78
2021/08/31 02:50:09;;;;;;;7.80;4.57;;;;;22.60;102301.00;;;;5008867;28;20201;-79
2021/08/31 02:52:37;;;;;;;5.88;4.20;;;;;22.50;102303.00;;;;5008812;28;20201;-79
2021/08/31 02:55:05;;;;;;;6.40;3.30;;;;;22.50;102300.00;;;;5009182;28;20209;-78
2021/08/31 02:57:32;;;;;;;7.80;4.43;;;;;22.50;102298.00;;;;5007658;28;20213;-78
2021/08/31 03:00:01;;;;;;;5.88;3.55;;;;;22.50;102301.00;;;;5008884;28;20200;-78
2021/08/31 03:02:28;;;;;;;14.70;4.45;;;;;22.50;102299.00;;;;5008538;28;20248;-77
2021/08/31 03:04:56;;;;;;;5.55;3.40;;;;;22.50;102303.00;;;;5007926;28;20295;-77
2021/08/31 03:07:23;;;;;;;6.75;4.10;;;;;22.50;102302.00;;;;5009443;28;20205;-77
2021/08/31 03:09:52;;;;;;;5.60;3.47;;;;;22.50;102304.00;;;;5008665;28;20694;-78
2021/08/31 03:12:19;;;;;;;6.82;3.80;;;;;22.50;102307.00;;;;5008259;28;20201;-77
2021/08/31 03:14:46;;;;;;;6.35;3.42;;;;;22.50;102308.00;;;;5007212;28;20211;-78
2021/08/31 03:17:13;;;;;;;6.30;3.90;;;;;22.50;102304.00;;;;5008226;28;20228;-77
2021/08/31 03:19:41;;;;;;;4.88;4.03;;;;;22.50;102310.00;;;;5007769;28;20682;-77
2021/08/31 03:22:10;;;;;;;4.82;3.58;;;;;22.60;102312.00;;;;5008899;28;20193;-77
2021/08/31 03:24:38;;;;;;;6.45;3.72;;;;;22.60;102310.00;;;;5006605;28;20259;-77
2021/08/31 03:27:07;;;;;;;6.35;3.72;;;;;22.60;102318.00;;;;5004656;28;20196;-77
2021/08/31 03:29:35;;;;;;;4.43;2.83;;;;;22.60;102312.00;;;;5007218;28;20291;-78
2021/08/31 03:32:02;;;;;;;6.53;3.17;;;;;22.60;102310.00;;;;5007699;28;20790;-77
2021/08/31 03:34:29;;;;;;;5.18;3.60;;;;;22.60;102308.00;;;;5008101;28;20574;-77
2021/08/31 03:36:56;;;;;;;8.02;4.28;;;;;22.60;102306.00;;;;5008685;28;20200;-77
2021/08/31 03:39:24;;;;;;;7.50;3.90;;;;;22.60;102302.00;;;;5006860;28;20197;-77
2021/08/31 03:41:51;;;;;;;8.45;4.00;;;;;22.60;102307.00;;;;5008147;28;20205;-77
2021/08/31 03:44:19;;;;;;;6.63;4.20;;;;;22.50;102311.00;;;;5008191;28;20248;-77
2021/08/31 03:46:46;;;;;;;6.25;3.70;;;;;22.50;102310.00;;;;5007946;28;20219;-77
2021/08/31 03:49:14;;;;;;;5.85;3.13;;;;;22.50;102313.00;;;;5007736;28;20675;-77
2021/08/31 03:51:41;;;;;;;7.78;4.20;;;;;22.50;102309.00;;;;5007790;28;20200;-77
2021/08/31 03:54:08;;;;;;;5.68;3.70;;;;;22.50;102302.00;;;;5008875;28;20220;-77
2021/08/31 03:56:35;;;;;;;6.22;3.70;;;;;22.50;102308.00;;;;5007040;28;20200;-77
2021/08/31 03:59:03;;;;;;;4.93;3.30;;;;;22.50;102313.00;;;;5007453;28;20579;-77
2021/08/31 04:01:31;;;;;;;6.50;3.50;;;;;22.50;102312.00;;;;5007679;28;20284;-77
2021/08/31 04:03:58;;;;;;;5.20;3.85;;;;;22.50;102307.00;;;;5006992;28;20225;-77
2021/08/31 04:06:26;;;;;;;5.30;4.07;;;;;22.40;102311.00;;;;5008217;28;20201;-77
2021/08/31 04:08:53;;;;;;;6.95;3.90;;;;;22.40;102312.00;;;;5011837;28;21119;-78
2021/08/31 04:11:20;;;;;;;6.13;3.33;;;;;22.40;102305.00;;;;5012145;28;20229;-78
2021/08/31 04:13:47;;;;;;;5.70;3.75;;;;;22.40;102312.00;;;;5012240;28;20216;-77
2021/08/31 04:16:14;;;;;;;10.80;3.40;;;;;22.40;102308.00;;;;5011329;28;20224;-78
2021/08/31 04:18:43;;;;;;;11.88;3.60;;;;;22.30;102314.00;;;;5011558;28;20225;-78
2021/08/31 04:21:11;;;;;;;5.05;3.60;;;;;22.30;102309.00;;;;5012439;28;20205;-78
2021/08/31 04:23:38;;;;;;;5.60;3.10;;;;;22.30;102308.00;;;;5011696;28;20232;-78
2021/08/31 04:26:06;;;;;;;7.20;2.92;;;;;22.30;102310.00;;;;5011295;28;20228;-78
2021/08/31 04:28:33;;;;;;;6.40;3.00;;;;;22.30;102310.00;;;;5010661;28;20675;-79
2021/08/31 04:31:00;;;;;;;7.75;3.55;;;;;22.20;102309.00;;;;5009742;28;20201;-77
2021/08/31 04:33:27;;;;;;;6.60;2.53;;;;;22.20;102314.00;;;;5011459;28;20208;-77
2021/08/31 04:35:56;;;;;;;6.10;2.92;;;;;22.20;102324.00;;;;5012321;28;20212;-77
2021/08/31 04:38:23;;;;;;;4.38;2.75;;;;;22.10;102328.00;;;;5011614;28;20559;-77
2021/08/31 04:40:50;;;;;;;5.75;2.97;;;;;22.10;102322.00;;;;5011191;28;20248;-77
2021/08/31 04:43:18;;;;;;;6.72;4.07;;;;;22.10;102322.00;;;;5010547;28;20449;-78
2021/08/31 04:45:45;;;;;;;4.82;3.20;;;;;22.20;102336.00;;;;5011242;28;20201;-77
2021/08/31 04:48:12;;;;;;;3.97;2.72;;;;;22.10;102330.00;;;;5011483;28;20212;-78
2021/08/31 04:50:40;;;;;;;5.15;3.17;;;;;22.10;102336.00;;;;5010369;28;20208;-77
2021/08/31 04:53:08;;;;;;;4.75;2.55;;;;;22.10;102340.00;;;;5011073;28;20197;-78
2021/08/31 04:55:35;;;;;;;8.13;2.45;;;;;22.10;102338.00;;;;5009245;28;20232;-78
2021/08/31 04:58:03;;;;;;;5.88;2.90;;;;;22.00;102348.00;;;;5010556;28;20201;-78
2021/08/31 05:00:30;;;;;;;3.65;2.80;;;;;22.00;102348.00;;;;5008797;28;20216;-78
2021/08/31 05:02:57;;;;;;;8.95;3.40;;;;;22.00;102348.00;;;;5009473;28;20197;-78
2021/08/31 05:05:25;;;;;;;5.82;3.40;;;;;22.00;102351.00;;;;5010000;28;20212;-78
2021/08/31 05:07:52;;;;;;;11.40;3.45;;;;;22.00;102350.00;;;;5010020;28;20658;-79
2021/08/31 05:10:21;;;;;;;3.95;2.65;;;;;22.00;102349.00;;;;5010215;28;20201;-78
2021/08/31 05:12:48;;;;;;;5.50;2.97;;;;;22.00;102350.00;;;;5009753;28;20204;-78
2021/08/31 05:15:15;;;;;;;14.45;3.25;;;;;22.00;102351.00;;;;5010110;28;20205;-79
2021/08/31 05:17:43;;;;;;;3.80;2.47;;;;;22.00;102354.00;;;;5009152;28;20736;-79
2021/08/31 05:20:11;;;;;;;5.07;2.85;;;;;21.90;102364.00;;;;5010076;28;20197;-78
2021/08/31 05:22:38;;;;;;;8.18;2.78;;;;;22.00;102355.00;;;;5009995;28;20706;-79
2021/08/31 05:25:06;;;;;;;8.40;2.80;;;;;21.90;102350.00;;;;5009132;28;20679;-78
2021/08/31 05:27:35;;;;;;;4.35;2.80;;;;;21.90;102358.00;;;;5009897;28;20200;-78
2021/08/31 05:30:02;;;;;;;5.28;2.58;;;;;21.90;102356.00;;;;5009654;28;20216;-77
2021/08/31 05:32:29;;;;;;;4.50;2.53;;;;;21.90;102367.00;;;;5009284;28;20201;-78
2021/08/31 05:34:56;;;;;;;5.25;3.22;;;;;21.90;102363.00;;;;5010216;28;20197;-78
2021/08/31 05:37:24;;;;;;;4.43;3.03;;;;;21.90;102359.00;;;;5010097;28;20197;-77
2021/08/31 05:39:51;;;;;;;6.15;2.75;;;;;21.90;102370.00;;;;5010197;28;20222;-78
2021/08/31 05:42:18;;;;;;;6.40;3.50;;;;;21.90;102372.00;;;;5009366;28;20209;-79
2021/08/31 05:44:47;;;;;;;6.68;3.67;;;;;21.90;102376.00;;;;5007297;28;20220;-78
2021/08/31 05:47:14;;;;;;;5.22;3.20;;;;;21.90;102376.00;;;;5006879;28;20217;-77
2021/08/31 05:49:42;;;;;;;4.05;2.78;;;;;21.90;102377.00;;;;5005076;28;20197;-77
2021/08/31 05:52:11;;;;;;;5.30;3.28;;;;;21.90;102389.00;;;;5004553;28;20628;-76
2021/08/31 05:54:39;;;;;;;4.45;2.90;;;;;21.90;102382.00;;;;5005027;28;20240;-76
2021/08/31 05:57:10;;;;;;;3.97;2.63;;;;;21.90;102375.00;;;;5005625;28;20196;-78
2021/08/31 05:59:39;;;;;;;10.18;2.78;;;;;21.90;102392.00;;;;5008615;28;20624;-79
2021/08/31 06:02:08;;;;;;;4.75;3.13;;;;;21.80;102385.00;;;;5009725;28;20291;-80
2021/08/31 06:04:36;;;;;;;4.10;2.80;;;;;21.80;102389.00;;;;5010031;28;20320;-79
2021/08/31 06:07:05;;;;;;;4.65;3.70;;;;;21.80;102394.00;;;;5010383;28;20281;-79
2021/08/31 06:09:35;;;;;;;5.35;3.22;;;;;21.80;102392.00;;;;5009817;28;20212;-79
2021/08/31 06:12:03;;;;;;;4.82;3.00;;;;;21.90;102391.00;;;;5008954;28;20239;-79
2021/08/31 06:14:30;;;;;;;4.43;2.75;;;;;21.90;102397.00;;;;5009529;28;20212;-78
2021/08/31 06:16:57;;;;;;;3.35;2.55;;;;;21.90;102396.00;;;;4998548;28;20248;-79
2021/08/31 06:19:26;;;;;;;3.55;2.67;;;;;21.90;102395.00;;;;4994835;28;20217;-79
2021/08/31 06:21:53;;;;;;;3.75;2.80;;;;;21.90;102397.00;;;;5009917;28;20686;-78
2021/08/31 06:24:20;;;;;;;5.15;3.20;;;;;21.90;102400.00;;;;5009982;28;20255;-78
2021/08/31 06:26:48;;;;;;;3.85;3.20;;;;;21.90;102398.00;;;;5007944;28;20201;-78
2021/08/31 06:29:15;;;;;;;4.25;3.03;;;;;22.00;102405.00;;;;4989504;28;20210;-79
2021/08/31 06:31:42;;;;;;;3.30;2.60;;;;;22.00;102407.00;;;;4989665;28;20216;-79
2021/08/31 06:34:10;;;;;;;3.97;2.95;;;;;22.00;102403.00;;;;4990078;28;20209;-78
2021/08/31 06:36:38;;;;;;;5.22;3.03;;;;;22.00;102407.00;;;;4997202;28;20219;-79
2021/08/31 06:39:05;;;;;;;4.90;3.17;;;;;22.10;102408.00;;;;5010091;28;20539;-79
2021/08/31 06:41:33;;;;;;;4.20;2.70;;;;;22.10;102408.00;;;;5009181;28;20216;-79
2021/08/31 06:44:00;;;;;;;4.25;3.13;;;;;22.10;102410.00;;;;5009154;28;20211;-79
2021/08/31 06:46:27;;;;;;;4.78;3.38;;;;;22.10;102409.00;;;;5009698;28;20201;-79
2021/08/31 06:48:54;;;;;;;3.92;3.05;;;;;22.20;102406.00;;;;5009047;28;20205;-79
2021/08/31 06:51:21;;;;;;;4.07;2.92;;;;;22.20;102413.00;;;;5009400;28;20232;-79
2021/08/31 06:53:50;;;;;;;5.57;3.30;;;;;22.20;102408.00;;;;5008954;28;20208;-78
2021/08/31 06:56:20;;;;;;;5.00;3.13;;;;;22.30;102410.00;;;;5009054;28;20251;-79
2021/08/31 06:58:47;;;;;;;5.53;3.22;;;;;22.30;102400.00;;;;4997723;28;20225;-78
2021/08/31 07:01:15;;;;;;;6.60;3.95;;;;;22.30;102407.00;;;;4998068;28;20205;-78
2021/08/31 07:03:42;;;;;;;6.80;3.40;;;;;22.30;102407.00;;;;4997939;28;20686;-78
2021/08/31 07:06:09;;;;;;;5.20;3.90;;;;;22.30;102402.00;;;;5003313;28;20225;-79
2021/08/31 07:08:36;;;;;;;4.35;3.40;;;;;22.30;102409.00;;;;5008025;28;20209;-79
2021/08/31 07:11:05;;;;;;;5.68;3.92;;;;;22.30;102413.00;;;;5008425;28;20228;-78
2021/08/31 07:13:32;;;;;;;7.25;3.38;;;;;22.30;102422.00;;;;5008166;28;20208;-78
2021/08/31 07:16:00;;;;;;;5.10;3.00;;;;;22.30;102415.00;;;;5007971;28;20205;-79
2021/08/31 07:18:28;;;;;;;5.32;3.10;;;;;22.40;102420.00;;;;5008630;28;20232;-79
2021/08/31 07:20:55;;;;;;;6.63;3.55;;;;;22.40;102416.00;;;;5008259;28;20563;-79
2021/08/31 07:23:22;;;;;;;5.85;3.10;;;;;22.50;102426.00;;;;5008762;28;20212;-79
2021/08/31 07:25:50;;;;;;;5.20;3.70;;;;;22.50;102420.00;;;;5006717;28;20224;-79
2021/08/31 07:28:19;;;;;;;6.43;4.05;;;;;22.50;102424.00;;;;5008363;28;20205;-78
2021/08/31 07:30:47;;;;;;;5.28;3.33;;;;;22.60;102422.00;;;;5007579;28;20204;-78
2021/08/31 07:33:14;;;;;;;12.15;3.42;;;;;22.60;102431.00;;;;5006021;28;20205;-79
2021/08/31 07:35:43;;;;;;;5.85;3.28;;;;;22.70;102425.00;;;;5008257;28;20208;-78
2021/08/31 07:38:10;;;;;;;3.97;2.83;;;;;22.80;102433.00;;;;5009135;28;20259;-78
2021/08/31 07:40:38;;;;;;;3.75;2.72;;;;;22.80;102429.00;;;;5008098;28;20197;-78
2021/08/31 07:43:06;;;;;;;5.72;2.88;;;;;22.90;102425.00;;;;5011258;28;20201;-79
2021/08/31 07:45:35;;;;;;;4.45;2.78;;;;;22.90;102428.00;;;;5011499;28;20232;-79
2021/08/31 07:48:02;;;;;;;6.82;3.38;;;;;23.00;102426.00;;;;5012623;28;20197;-79
2021/08/31 07:50:29;;;;;;;9.40;2.75;;;;;23.10;102431.00;;;;5012326;28;20280;-79
2021/08/31 07:52:56;;;;;;;5.05;2.83;;;;;23.10;102429.00;;;;5010961;28;20201;-79
2021/08/31 07:55:24;;;;;;;3.90;2.40;;;;;23.20;102434.00;;;;5012597;28;20200;-79
2021/08/31 07:57:51;;;;;;;4.13;2.70;;;;;23.20;102437.00;;;;5012189;28;20204;-79
2021/08/31 08:00:18;;;;;;;6.45;3.65;;;;;23.30;102434.00;;;;5010000;28;20205;-79
2021/08/31 08:02:47;;;;;;;7.22;3.00;;;;;23.40;102438.00;;;;5008777;28;20200;-79
2021/08/31 08:05:15;;;;;;;5.18;3.20;;;;;23.50;102437.00;;;;5011318;28;20220;-79
2021/08/31 08:07:42;;;;;;;7.03;2.47;;;;;23.50;102437.00;;;;5011552;28;20208;-79
2021/08/31 08:10:10;;;;;;;5.68;2.58;;;;;23.60;102441.00;;;;5011943;28;20212;-79
2021/08/31 08:12:37;;;;;;;4.72;3.10;;;;;23.60;102441.00;;;;5010930;28;20193;-78
2021/08/31 08:15:06;;;;;;;6.13;2.78;;;;;23.60;102438.00;;;;5012747;28;20197;-79
2021/08/31 08:17:33;;;;;;;5.97;2.80;;;;;23.60;102446.00;;;;5010662;28;20232;-79
2021/08/31 08:20:02;;;;;;;6.40;2.55;;;;;23.60;102447.00;;;;5011927;28;20914;-78
2021/08/31 08:22:29;;;;;;;5.95;2.95;;;;;23.70;102459.00;;;;5011915;28;20200;-78
2021/08/31 08:24:57;;;;;;;4.63;2.78;;;;;23.70;102455.00;;;;5010999;28;20343;-78
2021/08/31 08:27:24;;;;;;;5.43;2.85;;;;;23.80;102460.00;;;;4992547;28;20198;-79
2021/08/31 08:29:52;;;;;;;3.70;2.30;;;;;23.80;102463.00;;;;5010947;28;20682;-79
2021/08/31 08:32:19;;;;;;;4.93;2.55;;;;;23.80;102461.00;;;;5010549;28;20204;-79
2021/08/31 08:34:46;;;;;;;3.60;2.90;;;;;23.80;102463.00;;;;5011484;28;20674;-79
2021/08/31 08:37:15;;;;;;;6.05;2.70;;;;;23.80;102458.00;;;;5011755;28;20217;-79
2021/08/31 08:39:42;;;;;;;5.70;2.63;;;;;23.90;102459.00;;;;5011175;28;20204;-79
2021/08/31 08:42:11;;;;;;;8.43;3.08;;;;;23.90;102470.00;;;;5010071;28;20226;-79
2021/08/31 08:44:39;;;;;;;4.03;2.83;;;;;23.80;102470.00;;;;5010860;28;20197;-79
2021/08/31 08:47:06;;;;;;;6.00;2.85;;;;;23.80;102471.00;;;;5010987;28;20189;-79
2021/08/31 08:49:34;;;;;;;4.15;2.50;;;;;23.80;102474.00;;;;5010215;28;20211;-79
2021/08/31 08:52:02;;;;;;;4.05;2.78;;;;;23.80;102467.00;;;;5010226;28;20205;-78
2021/08/31 08:54:30;;;;;;;6.53;2.67;;;;;23.90;102474.00;;;;5010786;28;20212;-78
2021/08/31 08:56:57;;;;;;;6.45;2.92;;;;;23.90;102484.00;;;;5011584;28;20201;-79
2021/08/31 08:59:25;;;;;;;3.95;2.67;;;;;23.90;102477.00;;;;5010081;28;20198;-79
2021/08/31 09:01:55;;;;;;;5.97;2.75;;;;;24.00;102477.00;;;;5010150;28;20212;-79
2021/08/31 09:04:43;;;;;;;4.20;2.60;;;;;24.00;102480.00;;;;5010971;28;20208;-79
2021/08/31 09:07:20;;;;;;;4.72;2.80;;;;;24.10;102479.00;;;;5010703;28;20197;-79
2021/08/31 09:09:51;;;;;;;5.88;3.08;;;;;24.20;102486.00;;;;5009711;28;20204;-79
2021/08/31 09:12:31;;;;;;;5.22;2.85;;;;;24.20;102482.00;;;;5010977;28;20197;-79
2021/08/31 09:15:20;;;;;;;3.33;2.25;;;;;24.20;102484.00;;;;5010630;28;20697;-79
2021/08/31 09:18:11;;;;;;;4.28;2.45;;;;;24.30;102480.00;;;;5009797;28;20229;-79
2021/08/31 09:20:41;;;;;;;5.50;2.60;;;;;24.40;102476.00;;;;5009793;28;20212;-79
2021/08/31 09:23:10;;;;;;;5.47;2.78;;;;;24.50;102485.00;;;;5010215;28;20195;-79
2021/08/31 09:25:41;;;;;;;4.75;2.53;;;;;24.50;102486.00;;;;5009945;28;20338;-78
2021/08/31 09:28:20;;;;;;;9.23;2.65;;;;;24.50;102495.00;;;;5007697;28;20197;-82
2021/08/31 09:30:57;;;;;;;4.70;2.42;;;;;24.50;102495.00;;;;5009261;28;20212;-82
2021/08/31 09:33:28;;;;;;;4.47;2.60;;;;;24.60;102489.00;;;;5009921;28;20204;-82
2021/08/31 09:36:19;;;;;;;6.20;2.35;;;;;24.50;102496.00;;;;5010783;28;20200;-80
2021/08/31 09:38:53;;;;;;;3.47;1.95;;;;;24.70;102497.00;;;;5006327;28;20201;-80
2021/08/31 09:41:30;;;;;;;5.20;2.47;;;;;24.70;102493.00;;;;5010430;28;20295;-80
2021/08/31 09:43:58;;;;;;;3.97;2.50;;;;;24.80;102498.00;;;;5010332;28;20300;-80
2021/08/31 09:46:25;;;;;;;6.82;2.17;;;;;24.80;102496.00;;;;5009890;28;20224;-80
2021/08/31 09:48:52;;;;;;;3.20;1.98;;;;;24.90;102497.00;;;;5009788;28;20259;-80
2021/08/31 09:51:19;;;;;;;6.50;2.95;;;;;24.90;102494.00;;;;5010334;28;20204;-79
2021/08/31 09:53:47;;;;;;;5.43;2.25;;;;;25.00;102495.00;;;;5009793;28;20206;-80
2021/08/31 09:56:15;;;;;;;4.32;2.58;;;;;25.00;102494.00;;;;5009755;28;20197;-80
2021/08/31 09:58:46;;;;;;;4.60;2.38;;;;;25.00;102483.00;;;;5009797;28;20590;-80
2021/08/31 10:01:13;;;;;;;4.38;2.95;;;;;25.20;102487.00;;;;5010465;28;20435;-80
2021/08/31 10:03:43;;;;;;;4.65;2.15;;;;;25.30;102486.00;;;;5008924;28;20230;-80
2021/08/31 10:06:10;;;;;;;3.80;2.67;;;;;25.50;102493.00;;;;5009332;28;20315;-79
2021/08/31 10:08:39;;;;;;;4.20;2.28;;;;;25.60;102489.00;;;;5009821;28;20216;-79
2021/08/31 10:11:06;;;;;;;4.38;2.53;;;;;25.70;102495.00;;;;5010303;28;20205;-80
2021/08/31 10:13:37;;;;;;;5.93;2.35;;;;;25.80;102496.00;;;;5009492;28;20218;-81
2021/08/31 10:16:07;;;;;;;5.05;3.15;;;;;25.80;102506.00;;;;5010468;28;20208;-79
2021/08/31 10:18:34;;;;;;;4.05;2.47;;;;;25.80;102499.00;;;;5009243;28;20248;-79
2021/08/31 10:21:05;;;;;;;5.35;2.17;;;;;25.80;102502.00;;;;5009246;28;20589;-80
2021/08/31 10:23:34;;;;;;;3.88;2.63;;;;;25.80;102504.00;;;;5009645;28;20308;-79
2021/08/31 10:26:30;;;;;;;4.38;2.70;;;;;25.70;102502.00;;;;5009960;28;20224;-80
2021/08/31 10:29:26;;;;;;;3.20;2.40;;;;;25.70;102505.00;;;;5009972;28;20212;-79
2021/08/31 10:31:57;;;;;;;4.97;2.70;;;;;25.80;102504.00;;;;5009355;28;20197;-80
2021/08/31 10:34:41;;;;;;;4.30;2.50;;;;;25.70;102499.00;;;;5008710;28;20201;-80
2021/08/31 10:37:10;;;;;;;3.90;2.80;;;;;25.80;102501.00;;;;5008699;28;20709;-80
2021/08/31 10:39:49;;;;;;;4.40;2.55;;;;;25.80;102501.00;;;;5009327;28;20200;-80
2021/08/31 10:42:42;;;;;;;6.25;3.00;;;;;25.70;102509.00;;;;5009696;28;20209;-80
2021/08/31 10:45:28;;;;;;;7.45;2.53;;;;;25.80;102512.00;;;;5008528;28;20578;-80
2021/08/31 10:47:59;;;;;;;5.30;2.63;;;;;25.80;102509.00;;;;5009593;28;20193;-81
2021/08/31 10:50:27;;;;;;;4.03;2.45;;;;;25.90;102510.00;;;;5009330;28;20201;-79
2021/08/31 10:53:04;;;;;;;4.88;2.55;;;;;25.80;102513.00;;;;5008850;28;20580;-80
2021/08/31 10:55:45;;;;;;;3.15;2.05;;;;;25.80;102515.00;;;;5008755;28;20646;-79
2021/08/31 10:58:14;;;;;;;2.78;1.90;;;;;25.80;102510.00;;;;5009549;28;20197;-79
2021/08/31 11:00:53;;;;;;;5.30;2.60;;;;;25.80;102512.00;;;;5009407;28;20296;-80
2021/08/31 11:03:39;;;;;;;3.08;2.20;;;;;25.90;102512.00;;;;5009172;28;20200;-80
2021/08/31 11:06:35;;;;;;;3.97;2.55;;;;;25.90;102513.00;;;;5009832;28;20224;-80
2021/08/31 11:09:24;;;;;;;3.35;2.47;;;;;26.00;102519.00;;;;5009033;28;20210;-80
2021/08/31 11:12:03;;;;;;;5.70;2.10;;;;;26.00;102522.00;;;;5009192;28;20204;-79
2021/08/31 11:14:58;;;;;;;3.30;2.05;;;;;26.10;102513.00;;;;5008393;28;20200;-80
2021/08/31 11:17:34;;;;;;;4.28;2.40;;;;;26.20;102509.00;;;;4984394;28;20243;-80
2021/08/31 11:20:21;;;;;;;3.78;2.22;;;;;26.10;102515.00;;;;5008774;28;20315;-79
2021/08/31 11:22:50;;;;;;;6.55;2.40;;;;;26.30;102518.00;;;;5008944;28;20570;-80
2021/08/31 11:25:25;;;;;;;4.50;2.00;;;;;26.30;102521.00;;;;5008943;28;20650;-79
2021/08/31 11:27:56;;;;;;;3.58;2.30;;;;;26.40;102521.00;;;;5009260;28;20211;-80
2021/08/31 11:30:24;;;;;;;5.93;2.30;;;;;26.40;102521.00;;;;5008283;28;20204;-78
2021/08/31 11:33:06;;;;;;;4.30;2.42;;;;;26.40;102517.00;;;;5009109;28;20499;-78
2021/08/31 11:35:35;;;;;;;4.57;2.80;;;;;26.40;102526.00;;;;5008504;28;20223;-78
2021/08/31 11:38:02;;;;;;;9.57;2.33;;;;;26.40;102519.00;;;;5009118;28;20547;-78
2021/08/31 11:40:30;;;;;;;4.10;2.40;;;;;26.40;102519.00;;;;5008313;28;20733;-78
2021/08/31 11:42:58;;;;;;;7.97;2.65;;;;;26.40;102515.00;;;;5008559;28;20216;-78
2021/08/31 11:45:37;;;;;;;4.13;2.47;;;;;26.40;102528.00;;;;5007909;28;20201;-78
2021/08/31 11:48:06;;;;;;;5.20;2.33;;;;;26.50;102533.00;;;;5009085;28;20208;-78
2021/08/31 11:50:35;;;;;;;6.30;2.75;;;;;26.50;102532.00;;;;5007817;28;20197;-78
2021/08/31 11:53:17;;;;;;;4.28;2.72;;;;;26.40;102538.00;;;;5008991;28;20200;-79
2021/08/31 11:55:53;;;;;;;5.65;2.35;;;;;26.40;102532.00;;;;5008702;28;20197;-78
2021/08/31 11:58:21;;;;;;;4.68;2.28;;;;;26.40;102531.00;;;;5008570;28;20196;-78
2021/08/31 12:00:48;;;;;;;3.47;2.03;;;;;26.40;102534.00;;;;5008219;28;20557;-78
2021/08/31 12:03:20;;;;;;;4.63;2.20;;;;;26.40;102531.00;;;;5008269;28;20214;-79
2021/08/31 12:05:52;;;;;;;4.40;2.65;;;;;26.50;102527.00;;;;5008624;28;20229;-79
2021/08/31 12:08:19;;;;;;;7.88;2.35;;;;;26.50;102531.00;;;;5008907;28;20200;-78
2021/08/31 12:10:47;;;;;;;8.30;2.55;;;;;26.60;102529.00;;;;5007663;28;20210;-78
2021/08/31 12:13:15;;;;;;;4.38;2.30;;;;;26.70;102526.00;;;;5008097;28;20209;-78
2021/08/31 12:15:42;;;;;;;4.70;2.50;;;;;26.70;102535.00;;;;5007667;28;20205;-79
2021/08/31 12:18:09;;;;;;;3.58;2.47;;;;;26.70;102535.00;;;;5008135;28;20245;-79